createdAt,value
2018-07-15T00:02:30.190Z,21.10
2018-07-15T00:07:34.992Z,21.10
2018-07-15T00:12:39.652Z,20.90
2018-07-15T00:17:44.468Z,20.90
2018-07-15T00:22:49.729Z,20.90
2018-07-15T00:27:54.373Z,20.90
2018-07-15T00:33:07.004Z,20.90
2018-07-15T00:38:11.755Z,20.70
2018-07-15T00:43:16.680Z,20.70
2018-07-15T00:48:21.409Z,20.60
2018-07-15T00:53:26.876Z,20.60
2018-07-15T00:58:31.523Z,20.70
2018-07-15T01:03:36.644Z,20.80
2018-07-15T01:08:41.402Z,20.70
2018-07-15T01:13:46.245Z,20.80
2018-07-15T01:18:51.166Z,20.90
2018-07-15T01:23:55.817Z,21.00
2018-07-15T01:29:00.497Z,20.60
2018-07-15T01:34:05.099Z,19.80
2018-07-15T01:39:09.683Z,19.40
2018-07-15T01:44:14.328Z,19.30
2018-07-15T01:49:18.881Z,19.30
2018-07-15T01:54:23.710Z,19.40
2018-07-15T01:59:28.523Z,19.50
2018-07-15T02:04:33.187Z,19.50
2018-07-15T02:09:37.724Z,19.40
2018-07-15T02:14:42.464Z,19.50
2018-07-15T02:19:47.304Z,19.50
2018-07-15T02:24:52.378Z,19.40
2018-07-15T02:29:57.671Z,19.40
2018-07-15T02:35:02.600Z,19.40
2018-07-15T02:40:07.546Z,19.40
2018-07-15T02:45:12.387Z,19.40
2018-07-15T02:50:17.569Z,19.40
2018-07-15T02:55:22.262Z,19.40
2018-07-15T03:00:28.839Z,19.40
2018-07-15T03:05:33.436Z,19.30
2018-07-15T03:10:38.135Z,19.30
2018-07-15T03:15:43.351Z,19.30
2018-07-15T03:20:48.205Z,19.30
2018-07-15T03:25:53.472Z,19.20
2018-07-15T03:30:58.290Z,19.30
2018-07-15T03:36:02.856Z,19.30
2018-07-15T03:41:09.230Z,19.30
2018-07-15T03:46:13.953Z,19.30
2018-07-15T03:51:18.341Z,19.30
2018-07-15T03:56:22.980Z,19.30
2018-07-15T04:01:27.732Z,19.30
2018-07-15T04:06:32.363Z,19.40
2018-07-15T04:11:37.501Z,19.40
2018-07-15T04:16:42.788Z,19.40
2018-07-15T04:21:47.396Z,19.40
2018-07-15T04:26:52.134Z,19.30
2018-07-15T04:31:56.755Z,18.90
2018-07-15T04:37:01.489Z,18.60
2018-07-15T04:42:06.527Z,18.50
2018-07-15T04:47:11.047Z,18.50
2018-07-15T04:52:15.828Z,18.50
2018-07-15T04:57:20.766Z,18.30
2018-07-15T05:02:25.705Z,18.30
2018-07-15T05:07:30.321Z,18.10
2018-07-15T05:12:35.245Z,18.00
2018-07-15T05:17:39.941Z,17.90
2018-07-15T05:22:44.634Z,18.00
2018-07-15T05:27:49.565Z,17.90
2018-07-15T05:32:54.320Z,17.90
2018-07-15T05:37:59.154Z,17.70
2018-07-15T05:43:03.878Z,17.80
2018-07-15T05:48:09.321Z,18.00
2018-07-15T05:53:14.058Z,18.10
2018-07-15T05:58:19.094Z,18.10
2018-07-15T06:03:23.532Z,18.20
2018-07-15T06:08:28.401Z,18.20
2018-07-15T06:13:33.224Z,18.20
2018-07-15T06:18:37.875Z,18.30
2018-07-15T06:23:42.507Z,18.30
2018-07-15T06:28:47.290Z,18.10
2018-07-15T06:33:51.943Z,18.20
2018-07-15T06:38:56.618Z,18.30
2018-07-15T06:44:01.426Z,18.10
2018-07-15T06:49:06.270Z,18.20
2018-07-15T06:54:10.924Z,18.10
2018-07-15T06:59:15.768Z,18.20
2018-07-15T07:04:20.541Z,18.40
2018-07-15T07:09:25.279Z,18.70
2018-07-15T07:14:30.374Z,18.90
2018-07-15T07:19:35.285Z,19.10
2018-07-15T07:24:39.981Z,19.40
2018-07-15T07:29:44.854Z,19.40
2018-07-15T07:34:49.633Z,19.50
2018-07-15T07:39:54.130Z,19.90
2018-07-15T07:44:58.959Z,20.00
2018-07-15T07:50:04.363Z,20.30
2018-07-15T07:55:08.990Z,20.40
2018-07-15T08:00:13.699Z,20.60
2018-07-15T08:05:19.330Z,20.80
2018-07-15T08:10:24.217Z,20.90
2018-07-15T08:15:29.680Z,21.60
2018-07-15T08:20:34.331Z,21.80
2018-07-15T08:25:39.298Z,21.90
2018-07-15T08:30:54.878Z,21.50
2018-07-15T08:35:59.692Z,21.90
2018-07-15T08:46:09.460Z,21.80
2018-07-15T08:51:14.632Z,21.50
2018-07-15T08:56:19.651Z,21.60
2018-07-15T09:01:24.371Z,22.00
2018-07-15T09:06:29.134Z,22.60
2018-07-15T09:11:33.628Z,22.90
2018-07-15T09:16:38.622Z,23.00
2018-07-15T09:21:43.432Z,23.20
2018-07-15T09:26:48.354Z,23.60
2018-07-15T09:31:53.090Z,24.10
2018-07-15T09:36:57.828Z,24.00
2018-07-15T09:42:02.674Z,24.40
2018-07-15T09:47:08.008Z,24.30
2018-07-15T09:52:12.808Z,24.50
2018-07-15T09:57:18.012Z,24.80
2018-07-15T10:02:22.739Z,25.00
2018-07-15T10:07:27.494Z,25.10
2018-07-15T10:12:32.419Z,25.10
2018-07-15T10:17:37.149Z,25.50
2018-07-15T10:22:41.992Z,25.90
2018-07-15T10:27:47.476Z,26.40
2018-07-15T10:32:52.451Z,26.90
2018-07-15T10:37:57.117Z,26.90
2018-07-15T10:43:01.724Z,26.60
2018-07-15T10:48:06.359Z,27.20
2018-07-15T10:53:11.230Z,27.90
2018-07-15T10:58:16.080Z,27.80
2018-07-15T11:03:20.837Z,28.20
2018-07-15T11:08:25.493Z,28.20
2018-07-15T11:13:30.730Z,27.70
2018-07-15T11:18:35.379Z,27.20
2018-07-15T11:23:40.089Z,26.80
2018-07-15T11:28:44.634Z,27.00
2018-07-15T11:33:49.354Z,26.50
2018-07-15T11:38:54.337Z,26.70
2018-07-15T11:43:58.986Z,27.10
2018-07-15T11:49:03.861Z,26.80
2018-07-15T11:54:08.672Z,27.60
2018-07-15T11:59:13.444Z,28.80
2018-07-15T12:04:17.952Z,29.50
2018-07-15T12:09:22.906Z,29.70
2018-07-15T12:14:27.711Z,30.60
2018-07-15T12:19:32.393Z,30.70
2018-07-15T12:24:36.979Z,32.00
2018-07-15T12:29:41.756Z,33.40
2018-07-15T12:34:46.562Z,34.70
2018-07-15T12:39:51.191Z,35.30
2018-07-15T12:44:55.824Z,35.00
2018-07-15T12:50:00.756Z,33.60
2018-07-15T12:55:05.328Z,34.30
2018-07-15T13:00:10.846Z,34.60
2018-07-15T13:05:15.730Z,34.70
2018-07-15T13:10:20.423Z,35.70
2018-07-15T13:15:25.190Z,36.90
2018-07-15T13:20:30.016Z,36.40
2018-07-15T13:25:34.741Z,37.40
2018-07-15T13:30:39.647Z,36.60
2018-07-15T13:35:44.550Z,38.40
2018-07-15T13:45:54.277Z,35.80
2018-07-15T13:50:59.238Z,33.90
2018-07-15T13:56:04.284Z,34.50
2018-07-15T14:01:09.189Z,33.30
2018-07-15T14:06:14.672Z,33.30
2018-07-15T14:11:19.544Z,34.00
2018-07-15T14:16:24.530Z,34.90
2018-07-15T14:21:29.493Z,35.90
2018-07-15T14:26:34.159Z,38.50
2018-07-15T14:31:38.791Z,38.60
2018-07-15T14:36:43.530Z,35.80
2018-07-15T14:41:48.686Z,35.20
2018-07-15T14:46:53.281Z,35.20
2018-07-15T14:51:58.009Z,33.80
2018-07-15T14:57:02.903Z,33.40
2018-07-15T15:02:08.028Z,32.20
2018-07-15T15:07:12.744Z,31.50
2018-07-15T15:12:17.629Z,30.70
2018-07-15T15:17:22.973Z,29.80
2018-07-15T15:22:27.756Z,29.50
2018-07-15T15:27:32.525Z,31.00
2018-07-15T15:32:37.241Z,34.10
2018-07-15T15:37:42.684Z,36.70
2018-07-15T15:42:47.447Z,38.50
2018-07-15T15:47:52.030Z,38.90
2018-07-15T15:52:57.732Z,36.50
2018-07-15T15:58:02.713Z,35.90
2018-07-15T16:03:08.016Z,36.10
2018-07-15T16:08:12.741Z,36.00
2018-07-15T16:13:17.686Z,35.90
2018-07-15T16:18:22.616Z,34.30
2018-07-15T16:23:27.494Z,32.40
2018-07-15T16:28:32.365Z,30.00
2018-07-15T16:33:37.343Z,28.30
2018-07-15T16:38:42.151Z,27.60
2018-07-15T16:43:47.868Z,27.60
2018-07-15T16:48:52.670Z,27.10
2018-07-15T16:53:57.179Z,27.10
2018-07-15T16:59:01.790Z,27.10
2018-07-15T17:04:06.757Z,25.50
2018-07-15T17:09:11.512Z,24.00
2018-07-15T17:14:16.263Z,24.00
2018-07-15T17:19:20.829Z,24.30
2018-07-15T17:29:30.422Z,24.60
2018-07-15T17:35:59.553Z,24.40
2018-07-15T17:41:04.332Z,23.00
2018-07-15T17:46:09.259Z,23.00
2018-07-15T17:51:13.878Z,23.00
2018-07-15T17:56:18.822Z,23.40
2018-07-15T18:01:23.660Z,23.40
2018-07-15T18:06:28.614Z,23.20
2018-07-15T18:11:34.012Z,23.20
2018-07-15T18:16:38.838Z,23.20
2018-07-15T18:21:44.399Z,23.10
2018-07-15T18:31:53.692Z,22.60
2018-07-15T18:36:58.450Z,22.50
2018-07-15T18:42:03.040Z,22.50
2018-07-15T18:47:07.693Z,22.50
2018-07-15T18:52:12.344Z,22.40
2018-07-15T18:57:16.988Z,22.20
2018-07-15T19:02:22.538Z,21.90
2018-07-15T19:07:27.148Z,21.70
2018-07-15T19:12:32.035Z,21.50
2018-07-15T19:17:36.624Z,21.40
2018-07-15T19:22:41.174Z,21.20
2018-07-15T19:27:46.073Z,21.10
2018-07-15T19:32:50.806Z,21.00
2018-07-15T19:37:55.408Z,20.90
2018-07-15T19:43:00.102Z,20.80
2018-07-15T19:48:05.025Z,20.90
2018-07-15T19:53:10.156Z,20.90
2018-07-15T19:58:15.347Z,20.80
2018-07-15T20:03:21.288Z,20.60
2018-07-15T20:08:27.328Z,20.40
2018-07-15T20:13:32.088Z,20.40
2018-07-15T20:18:36.863Z,20.30
2018-07-15T20:23:41.669Z,20.40
2018-07-15T20:28:46.628Z,20.20
2018-07-15T20:33:51.609Z,20.20
2018-07-15T20:38:57.032Z,20.40
2018-07-15T20:44:01.728Z,20.50
2018-07-15T20:49:06.524Z,20.70
2018-07-15T20:54:11.283Z,20.80
2018-07-15T20:59:16.597Z,20.80
2018-07-15T21:04:21.492Z,20.90
2018-07-15T21:09:26.233Z,20.60
2018-07-15T21:14:31.167Z,20.40
2018-07-15T21:19:36.063Z,19.90
2018-07-15T21:24:41.183Z,19.70
2018-07-15T21:29:45.864Z,19.10
2018-07-15T21:39:54.824Z,18.90
2018-07-15T21:45:00.567Z,18.80
2018-07-15T21:50:05.929Z,19.00
2018-07-15T21:55:11.215Z,19.00
2018-07-15T22:00:15.826Z,19.10
2018-07-15T22:05:20.323Z,19.10
2018-07-15T22:10:37.502Z,19.30
2018-07-15T22:15:42.447Z,19.20
2018-07-15T22:20:48.177Z,19.10
2018-07-15T22:25:52.763Z,19.00
2018-07-15T22:30:57.498Z,19.30
2018-07-15T22:36:02.300Z,19.30
2018-07-15T22:41:06.880Z,19.30
2018-07-15T22:46:11.587Z,19.30
2018-07-15T22:51:16.254Z,19.30
2018-07-15T22:56:20.806Z,19.30
2018-07-15T23:01:26.085Z,19.30
2018-07-15T23:06:31.432Z,19.00
2018-07-15T23:11:36.182Z,18.90
2018-07-15T23:16:41.247Z,18.90
2018-07-15T23:21:46.563Z,18.90
2018-07-15T23:26:51.141Z,18.90
2018-07-15T23:31:55.791Z,18.80
2018-07-15T23:37:00.442Z,18.70
2018-07-15T23:42:05.255Z,18.70
2018-07-15T23:47:10.194Z,18.70
2018-07-15T23:52:14.795Z,18.70
2018-07-15T23:57:19.528Z,18.60
